Station: KUITPO AWS

  Atmospheric Gas Attenuation - ITU Rec 676-11   --------------- db/100km ---------------
Date Time Temp RH % AH g/m3 Dew Point Wind Direction Speed kph Gust kph Barometer mB Rainfall Since 9am 24GHz 47GHz 76GHz 122GHz 134GHz 241GHz
17 01:00 7.7 100 8.11 7.7 19 28 1020.6 0.2 18.8 27.2 41.2 108.1 100.2 343.7
17 00:50 7.6 100 8.06 7.6 19 20 1020.5 0.2 18.7 27.1 41.1 107.6 99.6 341.7
17 00:40 7.6 100 8.06 7.6 17 20 1020.8 0 18.7 27.1 41.1 107.7 99.6 341.8
17 00:30 7.2 100 7.85 7.2 15 19 1021.1 0 18.3 26.9 40.4 105.9 97.2 333.2
17 00:20 7.1 100 7.8 7.1 13 17 1020.8 0 18.2 26.8 40.2 105.4 96.6 331.1
17 00:09 7 100 7.75 7 13 19 1021 0 18.1 26.8 40.1 105.0 96.0 329.1
17 00:00 7.2 100 7.85 7.2 13 17 1021.5 0 18.3 26.9 40.4 105.9 97.2 333.3
16 23:50 7.2 100 7.85 7.2 15 19 1021.2 0 18.3 26.9 40.4 105.9 97.2 333.2
16 23:40 7.4 100 7.96 7.4 9 13 1021.2 0 18.5 27.0 40.8 106.9 98.5 337.8
16 23:30 7.4 100 7.96 7.4 13 19 1021.7 0 18.5 27.1 40.8 106.9 98.5 337.9
16 23:20 7.4 100 7.96 7.4 13 13 1021.4 0 18.5 27.1 40.8 106.9 98.5 337.8
16 23:10 7.5 100 8.01 7.5 13 17 1021.4 0 18.6 27.1 40.9 107.3 99.1 339.9
16 23:00 7.8 100 8.16 7.8 15 19 1021.9 0 18.9 27.3 41.5 108.7 100.9 346.2
16 22:50 7.6 100 8.06 7.6 15 17 1021.4 0 18.7 27.2 41.1 107.7 99.7 341.9
16 22:40 7.7 100 8.11 7.7 15 19 1021.3 0 18.8 27.2 41.3 108.2 100.2 343.9
16 22:30 7.7 100 8.11 7.7 15 20 1021.6 0 18.8 27.2 41.3 108.2 100.3 344.0
16 22:20 7.7 100 8.11 7.7 15 19 1021.3 0 18.8 27.2 41.3 108.2 100.2 343.9
16 22:10 7.8 100 8.16 7.8 15 17 1021.4 0 18.9 27.3 41.4 108.6 100.8 346.0
16 22:00 7.8 100 8.16 7.8 17 20 1021.8 0 18.9 27.3 41.4 108.7 100.8 346.1
16 21:50 7.9 100 8.22 7.9 15 19 1021.6 0 19.1 27.4 41.6 109.2 101.5 348.6
16 21:40 8 100 8.27 8 17 19 1021.8 0 19.2 27.4 41.8 109.6 102.1 350.7
16 21:30 8 100 8.27 8 13 17 1022.5 0 19.2 27.4 41.9 109.7 102.2 350.9
16 21:20 8.2 100 8.38 8.2 13 17 1022.2 0 19.4 27.6 42.2 110.7 103.5 355.4
16 21:10 8.2 100 8.38 8.2 13 15 1022.2 0 19.4 27.6 42.2 110.7 103.5 355.4
16 21:00 8.2 100 8.38 8.2 13 15 1022.5 0 19.4 27.6 42.2 110.7 103.5 355.5
16 20:50 8.3 100 8.43 8.3 13 15 1022 0 19.5 27.6 42.4 111.1 104.0 357.3
16 20:40 8.2 100 8.38 8.2 15 17 1021.9 0 19.4 27.6 42.2 110.6 103.4 355.3
16 20:30 8.2 100 8.38 8.2 15 19 1022.3 0 19.4 27.6 42.2 110.7 103.5 355.4
16 20:20 8.3 100 8.43 8.3 15 15 1021.8 0 19.5 27.6 42.3 111.1 104.0 357.3
16 20:10 8.3 100 8.43 8.3 15 15 1021.8 0 19.5 27.6 42.3 111.1 104.0 357.3
16 20:00 8.2 100 8.38 8.2 15 20 1022.2 0 19.4 27.6 42.2 110.7 103.5 355.4
16 19:50 8.2 99 8.29 8.1 13 15 1022 0 19.2 27.4 41.8 109.6 102.2 350.8
16 19:40 8.3 98 8.26 8 11 13 1022.2 0 19.1 27.3 41.6 109.2 101.6 349.0
16 19:30 8.4 98 8.32 8.1 11 13 1022.6 0 19.2 27.4 41.9 109.7 102.4 351.6
16 19:20 8.7 98 8.48 8.4 13 13 1022.2 0 19.6 27.6 42.4 111.1 104.2 358.0
16 19:10 8.7 97 8.39 8.3 13 15 1021.9 0 19.4 27.4 42.0 110.0 102.9 353.5
16 19:00 8.8 97 8.45 8.4 13 17 1022.3 0 19.5 27.5 42.2 110.6 103.7 356.1
16 18:50 9 96 8.47 8.4 11 15 1021.8 0 19.5 27.5 42.1 110.5 103.6 356.0
16 18:40 9.2 96 8.58 8.6 13 17 1021.8 0 19.8 27.6 42.5 111.5 104.9 360.6
16 18:30 9.3 95 8.54 8.5 13 17 1022.1 0 19.7 27.5 42.3 110.9 104.2 358.2
16 18:20 9.3 94 8.45 8.4 11 13 1021.7 0 19.5 27.3 41.9 109.9 102.9 353.7
16 18:10 9.5 93 8.47 8.4 9 11 1021.7 0 19.5 27.3 41.9 109.8 102.9 353.7
16 18:00 9.7 91 8.39 8.3 11 13 1022 0 19.3 27.1 41.4 108.7 101.6 349.0
16 17:50 9.8 91 8.45 8.4 11 13 1021.6 0 19.5 27.2 41.6 109.1 102.3 351.4
16 17:40 10.1 90 8.51 8.5 11 13 1021.5 0 19.6 27.2 41.7 109.4 102.7 352.9
16 17:30 10.2 89 8.47 8.5 7 11 1022 0 19.5 27.1 41.5 108.9 102.0 350.6
16 17:20 10.2 87 8.28 8.1 0 0 1021.6 0 19.1 26.8 40.7 106.7 99.4 341.3
16 17:10 10.7 85 8.35 8.3 0 0 1021.6 0 19.2 26.7 40.7 106.8 99.7 342.5
16 17:00 11.4 83 8.52 8.6 2 6 1021.9 0 19.5 26.8 41.1 107.7 101.1 347.6
16 16:50 11.6 82 8.52 8.6 4 6 1021.4 0 19.5 26.7 41.0 107.4 100.8 346.6
16 16:40 12.2 80 8.63 8.9 2 6 1021.4 0 19.7 26.7 41.1 107.8 101.5 349.2
16 16:30 12.8 77 8.63 8.9 2 7 1021.8 0 19.7 26.6 40.8 107.0 100.8 346.6
16 16:20 13.3 75 8.67 9 0 0 1021.5 0 19.8 26.5 40.7 106.7 100.7 346.2
16 16:10 13.3 75 8.67 9 6 7 1021.5 0 19.8 26.5 40.7 106.7 100.7 346.2
16 16:00 13.2 75 8.61 8.9 6 9 1021.9 0 19.6 26.4 40.5 106.3 100.0 344.0
16 15:50 13.6 72 8.47 8.7 6 6 1021.6 0 19.3 26.1 39.7 104.2 97.6 335.6
16 15:40 13.5 71 8.31 8.4 11 13 1021.5 0 19.0 25.8 39.1 102.6 95.6 328.6
16 15:30 13.8 69 8.22 8.2 7 13 1021.9 0 18.8 25.6 38.7 101.3 94.1 323.3
16 15:20 13.8 70 8.34 8.4 9 11 1021.4 0 19.0 25.8 39.1 102.5 95.6 328.7
16 15:10 13.7 68 8.05 7.9 13 15 1021.5 0 18.4 25.3 38.0 99.6 92.0 315.8
16 15:00 14.1 69 8.37 8.5 9 13 1021.8 0 19.1 25.8 39.1 102.5 95.7 328.9
16 14:50 14 69 8.32 8.4 9 11 1021.5 0 19.0 25.7 38.9 102.1 95.1 327.0
16 14:40 13.5 67 7.84 7.5 6 7 1021.5 0 18.0 25.1 37.3 97.6 89.5 307.1
16 14:30 13 73 8.28 8.3 7 11 1021.9 0 18.9 25.9 39.3 103.0 95.9 329.4
16 14:20 13.2 73 8.38 8.5 9 9 1021.5 0 19.1 26.0 39.6 103.7 96.9 333.1
16 14:10 13.1 75 8.56 8.8 11 13 1021.5 0 19.5 26.3 40.4 105.8 99.4 341.9
16 14:00 13 75 8.51 8.7 9 15 1021.9 0 19.4 26.3 40.2 105.5 98.9 340.1
16 13:50 13.5 72 8.42 8.6 9 11 1021.6 0 19.2 26.0 39.6 103.8 97.1 333.7
16 13:40 14.4 71 8.78 9.2 9 13 1021.6 0 19.9 26.3 40.6 106.5 100.7 346.5
16 13:30 14.2 62 7.57 7 6 11 1022 0 17.4 24.5 35.9 94.0 85.3 292.4
16 13:20 13.7 62 7.34 6.6 11 11 1021.9 0 16.9 24.2 35.3 92.2 82.9 283.9
16 13:10 13.8 60 7.15 6.2 11 11 1022 0 16.5 23.9 34.5 90.2 80.4 275.2
16 13:00 14 66 7.96 7.8 9 15 1022.5 0 18.2 25.2 37.6 98.4 90.5 310.8
16 12:50 14.1 71 8.62 8.9 7 11 1022.3 0 19.6 26.2 40.1 105.2 99.0 340.6
16 12:40 13.6 72 8.47 8.7 7 9 1022.4 0 19.3 26.1 39.8 104.3 97.7 335.8
16 12:30 13.2 74 8.5 8.7 7 11 1022.9 0 19.4 26.3 40.1 105.2 98.6 339.1
16 12:20 12.4 74 8.09 7.9 7 9 1022.9 0 18.6 25.8 38.9 101.8 94.2 323.3
16 12:10 12.9 73 8.23 8.2 9 13 1023 0 18.8 25.9 39.2 102.7 95.4 327.8
16 12:00 13.6 74 8.71 9.1 6 11 1023.4 0 19.8 26.5 40.8 107.0 101.0 347.3
16 11:50 13 74 8.39 8.5 9 9 1023.2 0 19.2 26.2 39.8 104.3 97.4 334.9
16 11:40 12.3 77 8.36 8.4 7 9 1023.4 0 19.1 26.3 40.0 104.9 97.9 336.5
16 11:30 12 79 8.42 8.5 9 17 1023.8 0 19.3 26.5 40.5 106.0 99.2 340.8
16 11:20 12.9 80 9.02 9.5 6 7 1023.4 0 20.5 27.2 42.4 111.4 106.1 365.2
16 11:10 12.3 79 8.58 8.8 9 11 1023.6 0 19.6 26.7 40.9 107.3 100.9 347.0
16 11:00 12.6 81 8.96 9.4 13 17 1024.1 0 20.4 27.3 42.4 111.2 105.7 363.9
16 10:50 12.3 81 8.8 9.1 13 15 1023.7 0 20.1 27.1 41.9 109.8 103.9 357.5
16 10:40 12.2 82 8.85 9.2 13 15 1023.8 0 20.2 27.2 42.1 110.5 104.8 360.4
16 10:30 11.7 85 8.89 9.3 9 13 1024.2 0 20.3 27.4 42.6 111.7 106.0 364.8
16 10:20 11.7 85 8.89 9.3 7 7 1023.8 0 20.3 27.4 42.6 111.7 106.0 364.6
16 10:10 11.7 85 8.89 9.3 7 9 1023.8 0 20.3 27.4 42.6 111.7 106.0 364.6
16 10:00 11.5 85 8.78 9.1 9 17 1024 0 20.1 27.3 42.2 110.7 104.8 360.3
16 09:50 11.1 84 8.46 8.5 15 19 1023.5 0 19.4 26.9 41.1 107.7 100.8 346.5
16 09:40 11.1 86 8.66 8.8 7 13 1023.4 0 19.8 27.2 41.9 109.9 103.6 356.2
16 09:30 10.3 87 8.33 8.2 7 11 1023.8 0 19.2 26.9 41.0 107.3 100.1 343.9
16 09:20 9.9 87 8.13 7.8 6 7 1023.3 0 18.8 26.7 40.3 105.6 97.8 335.8
16 09:10 9.8 86 7.98 7.6 4 7 1023.2 0 18.4 26.4 39.7 104.0 95.9 329.0
16 09:00 9.6 88 8.06 7.7 7 15 1023.5 0 18.6 26.6 40.2 105.2 97.3 333.8
16 08:50 9.1 90 7.99 7.5 9 13 1023.2 0 18.5 26.7 40.1 105.1 96.9 332.5
16 08:40 9.1 93 8.25 8 7 9 1023.1 0 19.1 27.1 41.2 108.0 100.5 345.1
16 08:30 9 91 8.03 7.6 11 17 1023.5 0 18.6 26.8 40.3 105.7 97.6 334.9

Last Refresh: 17-Jul-2020 01:11:04

Most of the information presented on this site is sourced from the Bureau of Meteorology.  Copyright in all material sourced from the Bureau of Meteorology resides with the Commonwealth of Australia.